MSC Regina — 3FGF9 — position and weather

sailwx.info

Track history (hours):
 
Tides and Currents Weather Stations Pressure Air Temp Water Temp Dewpoint Dewpoint Depression Visibility Wind Speed Wind Dir Waves Ship Positions

MSC Regina

Last reported at 2016-May-30 12:17 UTC. Time now 2016-May-30 14:35 UTC.
Position N 37°19' W 000°55'.

Length 259 m; draft 10.3 m.

Type: Ship (hazmat cat A). MMSI: 357331980.

Date/timePositionNaut miles runAvg speedWind from/ knotsBaromVisibWave heightAir tempDewpointWater temp
2016-May-30 12:17N 37°19' W 000°55'1518.3
2016-May-30 11:29N 37°28' W 000°41'1717.8
2016-May-30 10:33N 37°41' W 000°27'1818.5
2016-May-30 09:33N 37°57' W 000°15'9014.9
2016-May-30 03:33N 39°26' W 000°19'0 0.1
2016-May-30 02:31N 39°26' W 000°19'0 0.0
2016-May-30 01:13N 39°26' W 000°19'0 0.0
2016-May-30 00:31N 39°26' W 000°19'0 0.0
2016-May-29 22:28N 39°26' W 000°19'0 0.0
2016-May-29 21:31N 39°26' W 000°19'0 0.0
2016-May-29 20:25N 39°26' W 000°19'0 0.0
2016-May-29 19:31N 39°26' W 000°19'0 0.0
2016-May-29 18:31N 39°26' W 000°19'0 0.0
2016-May-29 17:31N 39°26' W 000°19'0 0.0
2016-May-29 16:31N 39°26' W 000°19'0 0.0
2016-May-29 15:31N 39°26' W 000°19'0 0.0
2016-May-29 14:31N 39°26' W 000°19'0 0.0
2016-May-29 13:26N 39°26' W 000°19'1 1.5
2016-May-29 12:34N 39°25' W 000°18'5 5.1
2016-May-29 11:32N 39°25' W 000°11'4 3.7
2016-May-29 10:33N 39°28' W 000°07'3710.9
2016-May-29 07:08N 39°42' E 000°37'711.0
2016-May-29 06:27N 39°46' E 000°46'1211.2
2016-May-29 05:23N 39°53' E 000°58'911.4
2016-May-29 04:33N 39°58' E 001°08'1211.6
2016-May-29 03:33N 40°05' E 001°20'1211.8
2016-May-29 02:33N 40°12' E 001°33'1211.7
2016-May-29 01:33N 40°19' E 001°45'1211.7
2016-May-29 00:33N 40°26' E 001°58'1211.8
2016-May-28 23:33N 40°33' E 002°10'1211.8
2016-May-28 22:33N 40°39' E 002°23'1211.7
2016-May-28 21:33N 40°46' E 002°35'1211.6
2016-May-28 20:34N 40°53' E 002°48'1211.6
2016-May-28 19:33N 40°60' E 003°00'1111.1
2016-May-28 18:33N 41°06' E 003°12'1110.9
2016-May-28 17:33N 41°13' E 003°24'1110.6
2016-May-28 16:33N 41°19' E 003°35'1110.9
2016-May-28 15:33N 41°25' E 003°47'1211.1
2016-May-28 14:31N 41°32' E 003°60'16511.7
2016-May-28 00:25N 43°09' E 007°01'1112.4
2016-May-27 23:33N 43°15' E 007°13'1312.8
2016-May-27 22:33N 43°23' E 007°27'1312.8
2016-May-27 21:33N 43°31' E 007°40'1412.9
2016-May-27 20:30N 43°40' E 007°55'1212.9
2016-May-27 19:34N 43°47' E 008°08'1312.6
2016-May-27 18:34N 43°58' E 008°18'1312.6
2016-May-27 17:33N 44°08' E 008°28'1312.5
2016-May-27 16:33N 44°18' E 008°38'9 9.2
2016-May-27 15:33N 44°25' E 008°47'0 0.0
2016-May-27 14:33N 44°25' E 008°47'0 0.0
2016-May-27 13:33N 44°25' E 008°47'0 0.0
2016-May-27 12:33N 44°25' E 008°47'0 0.0
2016-May-27 11:30N 44°25' E 008°47'0 0.0
2016-May-27 10:33N 44°25' E 008°47'0 0.0
2016-May-27 09:27N 44°25' E 008°47'0 0.0
2016-May-27 08:33N 44°25' E 008°47'0 0.0
2016-May-27 07:30N 44°25' E 008°47'0 0.0
2016-May-27 06:31N 44°25' E 008°47'0 0.0
2016-May-27 05:31N 44°25' E 008°47'0 0.0
2016-May-27 04:32N 44°25' E 008°47'0 0.4
2016-May-27 03:33N 44°25' E 008°46'4 4.0
2016-May-27 02:33N 44°22' E 008°42'1110.8
2016-May-27 01:34N 44°14' E 008°51'1212.2
2016-May-27 00:33N 44°05' E 009°03'1212.3
2016-May-26 23:33N 43°56' E 009°15'1212.3
2016-May-26 22:33N 43°47' E 009°27'1212.2
2016-May-26 21:33N 43°38' E 009°38'1211.6
2016-May-26 20:33N 43°31' E 009°51'1211.9
2016-May-26 19:33N 43°30' E 010°07'8 8.5
2016-May-26 18:33N 43°34' E 010°18'1 0.9
2016-May-26 17:33N 43°35' E 010°18'0 0.0
2016-May-26 16:33N 43°35' E 010°18'0 0.0
2016-May-26 15:30N 43°35' E 010°18'0 0.0
2016-May-26 14:33N 43°35' E 010°18'0 0.0
2016-May-26 13:33N 43°35' E 010°18'0 0.0
2016-May-26 12:33N 43°35' E 010°18'0 0.0
2016-May-26 11:30N 43°35' E 010°18'0 0.0
2016-May-26 10:33N 43°35' E 010°18'0 0.0
2016-May-26 09:27N 43°35' E 010°18'0 0.0
2016-May-26 08:33N 43°35' E 010°18'0 0.0
2016-May-26 07:33N 43°35' E 010°18'0 0.0
2016-May-26 06:33N 43°35' E 010°18'0 0.0
2016-May-26 05:30N 43°35' E 010°18'0 0.0
2016-May-26 04:33N 43°35' E 010°18'0 0.3
2016-May-26 03:33N 43°34' E 010°18'7 6.9
2016-May-26 02:33N 43°29' E 010°12'1413.8
2016-May-26 01:33N 43°19' E 009°59'1414.0
2016-May-26 00:33N 43°10' E 009°44'1212.0
2016-May-25 23:33N 42°59' E 009°39'1514.6
2016-May-25 22:33N 42°45' E 009°44'1614.3
2016-May-25 21:28N 42°30' E 009°50'1314.0
2016-May-25 20:33N 42°18' E 009°56'1414.3
2016-May-25 19:33N 42°08' E 010°10'1614.5
2016-May-25 18:27N 41°57' E 010°26'1415.4
2016-May-25 17:33N 41°48' E 010°40'2015.6
2016-May-25 16:16N 41°35' E 010°60'1115.5
2016-May-25 15:33N 41°28' E 011°11'23815.5
2016-May-25 00:12N 38°48' E 015°02'1016.3
2016-May-24 23:33N 38°43' E 015°14'1616.1
2016-May-24 22:33N 38°36' E 015°32'1615.8
2016-May-24 21:33N 38°27' E 015°49'4 3.7
2016-May-24 20:28N 38°28' E 015°54'0 0.0
2016-May-24 19:28N 38°28' E 015°54'0 0.0
2016-May-24 18:22N 38°28' E 015°54'0 0.0
2016-May-24 17:31N 38°28' E 015°54'0 0.0
2016-May-24 16:22N 38°28' E 015°54'0 0.0
2016-May-24 15:31N 38°28' E 015°54'0 0.0
2016-May-24 14:31N 38°28' E 015°54'0 0.0
2016-May-24 13:19N 38°28' E 015°54'0 0.0
2016-May-24 12:28N 38°28' E 015°54'0 0.0
2016-May-24 11:31N 38°28' E 015°54'0 0.0
2016-May-24 10:31N 38°28' E 015°54'0 0.0
2016-May-24 09:28N 38°28' E 015°54'0 0.0
2016-May-24 08:28N 38°28' E 015°54'0 0.0
2016-May-24 07:28N 38°28' E 015°54'0 0.0
2016-May-24 06:31N 38°28' E 015°54'0 0.0
2016-May-24 05:31N 38°28' E 015°54'0 0.0
2016-May-24 04:25N 38°28' E 015°54'0 0.0
2016-May-24 03:31N 38°28' E 015°54'0 0.0
2016-May-24 02:31N 38°28' E 015°54'0 0.0
2016-May-24 01:28N 38°28' E 015°54'0 0.0
2016-May-23 23:31N 38°28' E 015°54'0 0.0
2016-May-23 22:31N 38°28' E 015°54'0 0.0
2016-May-23 21:28N 38°28' E 015°54'1 1.1
2016-May-23 20:33N 38°27' E 015°54'9 8.8
2016-May-23 19:33N 38°25' E 015°43'1919.3
2016-May-23 18:33N 38°20' E 015°19'1919.2
2016-May-23 17:33N 38°17' E 014°55'2018.9
2016-May-23 16:29N 38°17' E 014°29'1918.6
2016-May-23 15:29N 38°17' E 014°05'1718.6
2016-May-23 14:33N 38°17' E 013°43'1918.9
2016-May-23 13:33N 38°18' E 013°19'1918.8
2016-May-23 12:33N 38°16' E 012°56'1919.1
2016-May-23 11:33N 38°13' E 012°32'1818.5
2016-May-23 10:33N 38°11' E 012°08'1918.6
2016-May-23 09:33N 38°09' E 011°44'1919.1
2016-May-23 08:33N 38°06' E 011°21'2019.5
2016-May-23 07:33N 38°04' E 010°56'1919.2
2016-May-23 06:33N 38°01' E 010°32'1918.9
2016-May-23 05:32N 37°58' E 010°08'2719.1
2016-May-23 04:06N 37°54' E 009°34'1318.9
2016-May-23 03:25N 37°52' E 009°17'1618.6
2016-May-23 02:34N 37°51' E 008°57'1918.5
2016-May-23 01:33N 37°49' E 008°34'1918.5
2016-May-23 00:33N 37°47' E 008°11'11719.2
2016-May-22 18:28N 37°32' E 005°44'1718.8
2016-May-22 17:33N 37°29' E 005°23'1918.7
2016-May-22 16:33N 37°27' E 004°59'3818.9
2016-May-22 14:33N 37°22' E 004°12'2019.5
2016-May-22 13:33N 37°19' E 003°48'2020.1
2016-May-22 12:33N 37°17' E 003°23'1919.2
2016-May-22 11:33N 37°14' E 002°59'1919.0
2016-May-22 10:33N 37°11' E 002°35'1918.8
2016-May-22 09:33N 37°07' E 002°12'2519.2
2016-May-22 08:15N 37°02' E 001°42'1419.6
2016-May-22 07:32N 36°59' E 001°25'2319.2
2016-May-22 06:21N 36°54' E 000°57'1518.3
2016-May-22 05:33N 36°51' E 000°39'1818.4
2016-May-22 04:33N 36°47' E 000°16'1918.6
2016-May-22 03:33N 36°44' W 000°06'1818.5
2016-May-22 02:33N 36°39' W 000°29'1918.6
2016-May-22 01:33N 36°35' W 000°51'1919.2
2016-May-22 00:33N 36°31' W 001°15'1919.1
2016-May-21 23:33N 36°28' W 001°38'2119.2
2016-May-21 22:27N 36°23' W 002°04'1718.5
2016-May-21 21:33N 36°20' W 002°24'13819.3
2016-May-21 14:25N 36°00' W 005°13'22017.1
2016-May-21 01:33N 36°52' W 009°39'2217.2
2016-May-21 00:18N 37°11' W 009°28'1418.7
2016-May-20 23:32N 37°23' W 009°17'1818.5
2016-May-20 22:33N 37°38' W 009°04'1817.9
2016-May-20 21:33N 37°53' W 008°51'3 3.4
2016-May-20 20:33N 37°56' W 008°51'0 0.0
2016-May-20 19:33N 37°56' W 008°51'0 0.0
2016-May-20 18:33N 37°56' W 008°51'0 0.0
2016-May-20 17:33N 37°56' W 008°51'0 0.0
2016-May-20 16:33N 37°56' W 008°51'0 0.0
2016-May-20 15:33N 37°56' W 008°51'0 0.0
2016-May-20 14:33N 37°56' W 008°51'1 0.8
2016-May-20 13:33N 37°55' W 008°50'9 9.5
2016-May-20 12:33N 37°48' W 008°58'  
Track history (hours):
 
Tides and Currents Weather Stations Pressure Air Temp Water Temp Dewpoint Dewpoint Depression Visibility Wind Speed Wind Dir Waves Ship Positions

MSC Regina

Last reported at 2016-May-30 12:17 UTC. Time now 2016-May-30 14:35 UTC.
Position N 37°19' W 000°55'.

Length 259 m; draft 10.3 m.

Type: Ship (hazmat cat A). MMSI: 357331980.

Date/timePositionNaut miles runAvg speedWind from/ knotsBaromVisibWave heightAir tempDewpointWater temp
2016-May-30 12:17N 37°19' W 000°55'1518.3
2016-May-30 11:29N 37°28' W 000°41'1717.8
2016-May-30 10:33N 37°41' W 000°27'1818.5
2016-May-30 09:33N 37°57' W 000°15'9014.9
2016-May-30 03:33N 39°26' W 000°19'0 0.1
2016-May-30 02:31N 39°26' W 000°19'0 0.0
2016-May-30 01:13N 39°26' W 000°19'0 0.0
2016-May-30 00:31N 39°26' W 000°19'0 0.0
2016-May-29 22:28N 39°26' W 000°19'0 0.0
2016-May-29 21:31N 39°26' W 000°19'0 0.0
2016-May-29 20:25N 39°26' W 000°19'0 0.0
2016-May-29 19:31N 39°26' W 000°19'0 0.0
2016-May-29 18:31N 39°26' W 000°19'0 0.0
2016-May-29 17:31N 39°26' W 000°19'0 0.0
2016-May-29 16:31N 39°26' W 000°19'0 0.0
2016-May-29 15:31N 39°26' W 000°19'0 0.0
2016-May-29 14:31N 39°26' W 000°19'0 0.0
2016-May-29 13:26N 39°26' W 000°19'1 1.5
2016-May-29 12:34N 39°25' W 000°18'5 5.1
2016-May-29 11:32N 39°25' W 000°11'4 3.7
2016-May-29 10:33N 39°28' W 000°07'3710.9
2016-May-29 07:08N 39°42' E 000°37'711.0
2016-May-29 06:27N 39°46' E 000°46'1211.2
2016-May-29 05:23N 39°53' E 000°58'911.4
2016-May-29 04:33N 39°58' E 001°08'1211.6
2016-May-29 03:33N 40°05' E 001°20'1211.8
2016-May-29 02:33N 40°12' E 001°33'1211.7
2016-May-29 01:33N 40°19' E 001°45'1211.7
2016-May-29 00:33N 40°26' E 001°58'1211.8
2016-May-28 23:33N 40°33' E 002°10'1211.8
2016-May-28 22:33N 40°39' E 002°23'1211.7
2016-May-28 21:33N 40°46' E 002°35'1211.6
2016-May-28 20:34N 40°53' E 002°48'1211.6
2016-May-28 19:33N 40°60' E 003°00'1111.1
2016-May-28 18:33N 41°06' E 003°12'1110.9
2016-May-28 17:33N 41°13' E 003°24'1110.6
2016-May-28 16:33N 41°19' E 003°35'1110.9
2016-May-28 15:33N 41°25' E 003°47'1211.1
2016-May-28 14:31N 41°32' E 003°60'16511.7
2016-May-28 00:25N 43°09' E 007°01'1112.4
2016-May-27 23:33N 43°15' E 007°13'1312.8
2016-May-27 22:33N 43°23' E 007°27'1312.8
2016-May-27 21:33N 43°31' E 007°40'1412.9
2016-May-27 20:30N 43°40' E 007°55'1212.9
2016-May-27 19:34N 43°47' E 008°08'1312.6
2016-May-27 18:34N 43°58' E 008°18'1312.6
2016-May-27 17:33N 44°08' E 008°28'1312.5
2016-May-27 16:33N 44°18' E 008°38'9 9.2
2016-May-27 15:33N 44°25' E 008°47'0 0.0
2016-May-27 14:33N 44°25' E 008°47'0 0.0
2016-May-27 13:33N 44°25' E 008°47'0 0.0
2016-May-27 12:33N 44°25' E 008°47'0 0.0
2016-May-27 11:30N 44°25' E 008°47'0 0.0
2016-May-27 10:33N 44°25' E 008°47'0 0.0
2016-May-27 09:27N 44°25' E 008°47'0 0.0
2016-May-27 08:33N 44°25' E 008°47'0 0.0
2016-May-27 07:30N 44°25' E 008°47'0 0.0
2016-May-27 06:31N 44°25' E 008°47'0 0.0
2016-May-27 05:31N 44°25' E 008°47'0 0.0
2016-May-27 04:32N 44°25' E 008°47'0 0.4
2016-May-27 03:33N 44°25' E 008°46'4 4.0
2016-May-27 02:33N 44°22' E 008°42'1110.8
2016-May-27 01:34N 44°14' E 008°51'1212.2
2016-May-27 00:33N 44°05' E 009°03'1212.3
2016-May-26 23:33N 43°56' E 009°15'1212.3
2016-May-26 22:33N 43°47' E 009°27'1212.2
2016-May-26 21:33N 43°38' E 009°38'1211.6
2016-May-26 20:33N 43°31' E 009°51'1211.9
2016-May-26 19:33N 43°30' E 010°07'8 8.5
2016-May-26 18:33N 43°34' E 010°18'1 0.9
2016-May-26 17:33N 43°35' E 010°18'0 0.0
2016-May-26 16:33N 43°35' E 010°18'0 0.0
2016-May-26 15:30N 43°35' E 010°18'0 0.0
2016-May-26 14:33N 43°35' E 010°18'0 0.0
2016-May-26 13:33N 43°35' E 010°18'0 0.0
2016-May-26 12:33N 43°35' E 010°18'0 0.0
2016-May-26 11:30N 43°35' E 010°18'0 0.0
2016-May-26 10:33N 43°35' E 010°18'0 0.0
2016-May-26 09:27N 43°35' E 010°18'0 0.0
2016-May-26 08:33N 43°35' E 010°18'0 0.0
2016-May-26 07:33N 43°35' E 010°18'0 0.0
2016-May-26 06:33N 43°35' E 010°18'0 0.0
2016-May-26 05:30N 43°35' E 010°18'0 0.0
2016-May-26 04:33N 43°35' E 010°18'0 0.3
2016-May-26 03:33N 43°34' E 010°18'7 6.9
2016-May-26 02:33N 43°29' E 010°12'1413.8
2016-May-26 01:33N 43°19' E 009°59'1414.0
2016-May-26 00:33N 43°10' E 009°44'1212.0
2016-May-25 23:33N 42°59' E 009°39'1514.6
2016-May-25 22:33N 42°45' E 009°44'1614.3
2016-May-25 21:28N 42°30' E 009°50'1314.0
2016-May-25 20:33N 42°18' E 009°56'1414.3
2016-May-25 19:33N 42°08' E 010°10'1614.5
2016-May-25 18:27N 41°57' E 010°26'1415.4
2016-May-25 17:33N 41°48' E 010°40'2015.6
2016-May-25 16:16N 41°35' E 010°60'1115.5
2016-May-25 15:33N 41°28' E 011°11'23815.5
2016-May-25 00:12N 38°48' E 015°02'1016.3
2016-May-24 23:33N 38°43' E 015°14'1616.1
2016-May-24 22:33N 38°36' E 015°32'1615.8
2016-May-24 21:33N 38°27' E 015°49'4 3.7
2016-May-24 20:28N 38°28' E 015°54'0 0.0
2016-May-24 19:28N 38°28' E 015°54'0 0.0
2016-May-24 18:22N 38°28' E 015°54'0 0.0
2016-May-24 17:31N 38°28' E 015°54'0 0.0
2016-May-24 16:22N 38°28' E 015°54'0 0.0
2016-May-24 15:31N 38°28' E 015°54'0 0.0
2016-May-24 14:31N 38°28' E 015°54'0 0.0
2016-May-24 13:19N 38°28' E 015°54'0 0.0
2016-May-24 12:28N 38°28' E 015°54'0 0.0
2016-May-24 11:31N 38°28' E 015°54'0 0.0
2016-May-24 10:31N 38°28' E 015°54'0 0.0
2016-May-24 09:28N 38°28' E 015°54'0 0.0
2016-May-24 08:28N 38°28' E 015°54'0 0.0
2016-May-24 07:28N 38°28' E 015°54'0 0.0
2016-May-24 06:31N 38°28' E 015°54'0 0.0
2016-May-24 05:31N 38°28' E 015°54'0 0.0
2016-May-24 04:25N 38°28' E 015°54'0 0.0
2016-May-24 03:31N 38°28' E 015°54'0 0.0
2016-May-24 02:31N 38°28' E 015°54'0 0.0
2016-May-24 01:28N 38°28' E 015°54'0 0.0
2016-May-23 23:31N 38°28' E 015°54'0 0.0
2016-May-23 22:31N 38°28' E 015°54'0 0.0
2016-May-23 21:28N 38°28' E 015°54'1 1.1
2016-May-23 20:33N 38°27' E 015°54'9 8.8
2016-May-23 19:33N 38°25' E 015°43'1919.3
2016-May-23 18:33N 38°20' E 015°19'1919.2
2016-May-23 17:33N 38°17' E 014°55'2018.9
2016-May-23 16:29N 38°17' E 014°29'1918.6
2016-May-23 15:29N 38°17' E 014°05'1718.6
2016-May-23 14:33N 38°17' E 013°43'1918.9
2016-May-23 13:33N 38°18' E 013°19'1918.8
2016-May-23 12:33N 38°16' E 012°56'1919.1
2016-May-23 11:33N 38°13' E 012°32'1818.5
2016-May-23 10:33N 38°11' E 012°08'1918.6
2016-May-23 09:33N 38°09' E 011°44'1919.1
2016-May-23 08:33N 38°06' E 011°21'2019.5
2016-May-23 07:33N 38°04' E 010°56'1919.2
2016-May-23 06:33N 38°01' E 010°32'1918.9
2016-May-23 05:32N 37°58' E 010°08'2719.1
2016-May-23 04:06N 37°54' E 009°34'1318.9
2016-May-23 03:25N 37°52' E 009°17'1618.6
2016-May-23 02:34N 37°51' E 008°57'1918.5
2016-May-23 01:33N 37°49' E 008°34'1918.5
2016-May-23 00:33N 37°47' E 008°11'11719.2
2016-May-22 18:28N 37°32' E 005°44'1718.8
2016-May-22 17:33N 37°29' E 005°23'1918.7
2016-May-22 16:33N 37°27' E 004°59'3818.9
2016-May-22 14:33N 37°22' E 004°12'2019.5
2016-May-22 13:33N 37°19' E 003°48'2020.1
2016-May-22 12:33N 37°17' E 003°23'1919.2
2016-May-22 11:33N 37°14' E 002°59'1919.0
2016-May-22 10:33N 37°11' E 002°35'1918.8
2016-May-22 09:33N 37°07' E 002°12'2519.2
2016-May-22 08:15N 37°02' E 001°42'1419.6
2016-May-22 07:32N 36°59' E 001°25'2319.2
2016-May-22 06:21N 36°54' E 000°57'1518.3
2016-May-22 05:33N 36°51' E 000°39'1818.4
2016-May-22 04:33N 36°47' E 000°16'1918.6
2016-May-22 03:33N 36°44' W 000°06'1818.5
2016-May-22 02:33N 36°39' W 000°29'1918.6
2016-May-22 01:33N 36°35' W 000°51'1919.2
2016-May-22 00:33N 36°31' W 001°15'1919.1
2016-May-21 23:33N 36°28' W 001°38'2119.2
2016-May-21 22:27N 36°23' W 002°04'1718.5
2016-May-21 21:33N 36°20' W 002°24'13819.3
2016-May-21 14:25N 36°00' W 005°13'22017.1
2016-May-21 01:33N 36°52' W 009°39'2217.2
2016-May-21 00:18N 37°11' W 009°28'1418.7
2016-May-20 23:32N 37°23' W 009°17'1818.5
2016-May-20 22:33N 37°38' W 009°04'1817.9
2016-May-20 21:33N 37°53' W 008°51'3 3.4
2016-May-20 20:33N 37°56' W 008°51'0 0.0
2016-May-20 19:33N 37°56' W 008°51'0 0.0
2016-May-20 18:33N 37°56' W 008°51'0 0.0
2016-May-20 17:33N 37°56' W 008°51'0 0.0
2016-May-20 16:33N 37°56' W 008°51'0 0.0
2016-May-20 15:33N 37°56' W 008°51'0 0.0
2016-May-20 14:33N 37°56' W 008°51'1 0.8
2016-May-20 13:33N 37°55' W 008°50'9 9.5
2016-May-20 12:33N 37°48' W 008°58'  

Dump ship's entire track history